Time;durP1;ratioP1;P1;durP2;ratioP2;P2;SDS_P1;SDS_P2;PMS_P1;PMS_P2;Temp;Humidity;BMP_temperature;BMP_pressure;BME280_temperature;BME280_humidity;BME280_pressure;Samples;Min_cycle;Max_cycle;Signal;HPM_P1;HPM_P2
2024/01/04 00:00:03;;;;;;;12.70;2.92;;;;;;;;;;4963997;29;20123;-57
2024/01/04 00:02:31;;;;;;;17.00;3.40;;;;;;;;;;4960950;29;20055;-57
2024/01/04 00:04:57;;;;;;;11.73;2.55;;;;;;;;;;4965112;29;20309;-54
2024/01/04 00:07:22;;;;;;;8.67;2.57;;;;;;;;;;4972437;29;20039;-56
2024/01/04 00:09:48;;;;;;;11.10;2.17;;;;;;;;;;4966834;29;20292;-56
2024/01/04 00:12:14;;;;;;;10.82;2.78;;;;;;;;;;4960174;29;20031;-55
2024/01/04 00:14:42;;;;;;;14.85;2.45;;;;;;;;;;4960624;29;20043;-55
2024/01/04 00:17:07;;;;;;;8.67;1.80;;;;;;;;;;4957337;29;20063;-54
2024/01/04 00:19:33;;;;;;;7.85;1.70;;;;;;;;;;4958452;29;20270;-57
2024/01/04 00:21:58;;;;;;;15.03;2.30;;;;;;;;;;4964497;29;20046;-55
2024/01/04 00:24:24;;;;;;;10.00;2.67;;;;;;;;;;4958885;29;20519;-57
2024/01/04 00:26:49;;;;;;;6.97;1.97;;;;;;;;;;4962039;29;20055;-56
2024/01/04 00:29:14;;;;;;;10.23;2.03;;;;;;;;;;4940615;29;20027;-53
2024/01/04 00:31:41;;;;;;;9.17;2.30;;;;;;;;;;4946433;29;20050;-55
2024/01/04 00:34:07;;;;;;;13.07;2.17;;;;;;;;;;4941467;29;20046;-54
2024/01/04 00:36:33;;;;;;;8.35;1.92;;;;;;;;;;4944134;29;20265;-53
2024/01/04 00:38:59;;;;;;;12.38;1.80;;;;;;;;;;4956929;29;20039;-57
2024/01/04 00:41:25;;;;;;;15.40;3.05;;;;;;;;;;4958668;29;20027;-56
2024/01/04 00:43:50;;;;;;;18.00;2.57;;;;;;;;;;4946654;29;20035;-57
2024/01/04 00:46:15;;;;;;;12.18;2.78;;;;;;;;;;4943493;29;20035;-56
2024/01/04 00:48:41;;;;;;;10.00;1.80;;;;;;;;;;4956861;29;20027;-57
2024/01/04 00:51:06;;;;;;;11.27;2.20;;;;;;;;;;4967356;29;20107;-57
2024/01/04 00:53:32;;;;;;;15.30;2.70;;;;;;;;;;4959265;29;20028;-56
2024/01/04 00:55:58;;;;;;;13.03;2.37;;;;;;;;;;4960175;29;20064;-56
2024/01/04 00:58:23;;;;;;;8.65;2.58;;;;;;;;;;4956987;29;20027;-55
2024/01/04 01:00:49;;;;;;;3.83;2.10;;;;;;;;;;4951972;29;20019;-55
2024/01/04 01:03:14;;;;;;;13.80;4.07;;;;;;;;;;4962214;29;20440;-54
2024/01/04 01:05:39;;;;;;;12.13;3.30;;;;;;;;;;4961581;29;20418;-56
2024/01/04 01:08:05;;;;;;;10.70;2.37;;;;;;;;;;4940213;29;20055;-53
2024/01/04 01:10:32;;;;;;;19.67;2.73;;;;;;;;;;4940531;29;20036;-56
2024/01/04 01:12:57;;;;;;;8.90;2.50;;;;;;;;;;4957580;29;20091;-57
2024/01/04 01:15:23;;;;;;;14.57;3.70;;;;;;;;;;4942817;29;20318;-56
2024/01/04 01:17:49;;;;;;;10.32;2.13;;;;;;;;;;4963340;29;20031;-54
2024/01/04 01:20:14;;;;;;;13.73;3.07;;;;;;;;;;4944008;29;20038;-56
2024/01/04 01:22:39;;;;;;;8.60;3.57;;;;;;;;;;4939228;29;20047;-56
2024/01/04 01:25:05;;;;;;;14.53;3.83;;;;;;;;;;4940040;29;20032;-56
2024/01/04 01:27:30;;;;;;;37.07;4.97;;;;;;;;;;4959346;29;20055;-54
2024/01/04 01:29:55;;;;;;;19.55;4.47;;;;;;;;;;4956294;29;20035;-57
2024/01/04 01:32:21;;;;;;;16.57;3.10;;;;;;;;;;4956285;29;20043;-55
2024/01/04 01:34:47;;;;;;;19.88;3.42;;;;;;;;;;4961424;29;20036;-56
2024/01/04 01:37:13;;;;;;;23.75;3.47;;;;;;;;;;4943728;29;20047;-54
2024/01/04 01:39:38;;;;;;;10.43;3.20;;;;;;;;;;4943309;29;20020;-55
2024/01/04 01:42:04;;;;;;;11.15;2.90;;;;;;;;;;4965485;28;20115;-56
2024/01/04 01:44:29;;;;;;;18.02;2.65;;;;;;;;;;4964560;29;20103;-54
2024/01/04 01:46:54;;;;;;;16.03;3.53;;;;;;;;;;4943053;29;20050;-56
2024/01/04 01:49:20;;;;;;;10.02;4.10;;;;;;;;;;4960681;29;20040;-55
2024/01/04 01:51:46;;;;;;;17.02;4.07;;;;;;;;;;4960063;29;20087;-55
2024/01/04 01:54:11;;;;;;;7.93;2.47;;;;;;;;;;4946731;29;20039;-54
2024/01/04 01:56:37;;;;;;;11.00;3.00;;;;;;;;;;4963792;29;20031;-53
2024/01/04 01:59:03;;;;;;;10.32;2.95;;;;;;;;;;4947354;29;20258;-56
2024/01/04 02:01:28;;;;;;;9.37;2.70;;;;;;;;;;4952516;29;20028;-54
2024/01/04 02:03:54;;;;;;;10.23;3.85;;;;;;;;;;4959945;29;20047;-56
2024/01/04 02:06:20;;;;;;;22.07;3.60;;;;;;;;;;4961219;29;20039;-56
2024/01/04 02:08:48;;;;;;;11.13;3.10;;;;;;;;;;4963623;29;20044;-56
2024/01/04 02:11:16;;;;;;;17.23;2.97;;;;;;;;;;4942765;29;20032;-56
2024/01/04 02:13:41;;;;;;;15.85;2.88;;;;;;;;;;4945131;29;20295;-56
2024/01/04 02:16:07;;;;;;;14.43;2.35;;;;;;;;;;4968407;29;20036;-53
2024/01/04 02:18:32;;;;;;;10.25;2.83;;;;;;;;;;4945397;29;20040;-58
2024/01/04 02:20:57;;;;;;;9.23;2.63;;;;;;;;;;4946467;29;20036;-57
2024/01/04 02:23:24;;;;;;;6.97;2.63;;;;;;;;;;4951106;29;20042;-56
2024/01/04 02:25:49;;;;;;;8.07;2.42;;;;;;;;;;4950624;29;20036;-57
2024/01/04 02:28:15;;;;;;;6.17;2.67;;;;;;;;;;4960072;29;20039;-57
2024/01/04 02:30:40;;;;;;;9.60;2.50;;;;;;;;;;4944723;29;20036;-53
2024/01/04 02:33:05;;;;;;;15.27;3.13;;;;;;;;;;4940591;29;20046;-57
2024/01/04 02:35:30;;;;;;;6.77;3.07;;;;;;;;;;4964180;29;20043;-56
2024/01/04 02:37:56;;;;;;;6.82;3.30;;;;;;;;;;4970203;29;20035;-57
2024/01/04 02:40:22;;;;;;;12.90;5.00;;;;;;;;;;4959050;29;20051;-58
2024/01/04 02:42:47;;;;;;;10.73;3.17;;;;;;;;;;4967164;29;20028;-53
2024/01/04 02:45:14;;;;;;;15.88;4.50;;;;;;;;;;4944863;29;20138;-54
2024/01/04 02:47:40;;;;;;;18.03;3.97;;;;;;;;;;4965471;29;20062;-57
2024/01/04 02:50:06;;;;;;;12.35;4.50;;;;;;;;;;4946286;29;20273;-57
2024/01/04 02:52:31;;;;;;;13.75;3.63;;;;;;;;;;4962246;29;20103;-53
2024/01/04 02:54:56;;;;;;;11.77;3.83;;;;;;;;;;4963811;29;20047;-56
2024/01/04 02:57:21;;;;;;;16.17;4.10;;;;;;;;;;4973204;29;20031;-52
2024/01/04 02:59:47;;;;;;;16.15;3.55;;;;;;;;;;4960351;29;20042;-57
2024/01/04 03:02:15;;;;;;;7.43;3.63;;;;;;;;;;4972974;29;20066;-56
2024/01/04 03:04:42;;;;;;;13.10;4.00;;;;;;;;;;4970209;29;20273;-56
2024/01/04 03:07:07;;;;;;;17.33;3.90;;;;;;;;;;4964034;29;20274;-53
2024/01/04 03:09:32;;;;;;;18.83;5.10;;;;;;;;;;4962371;29;20361;-55
2024/01/04 03:11:58;;;;;;;13.77;4.53;;;;;;;;;;4958048;29;20035;-56
2024/01/04 03:14:24;;;;;;;19.33;4.57;;;;;;;;;;4961232;29;20055;-57
2024/01/04 03:16:49;;;;;;;22.52;4.65;;;;;;;;;;4960498;29;20090;-57
2024/01/04 03:19:15;;;;;;;32.27;5.63;;;;;;;;;;4967630;29;20032;-56
2024/01/04 03:21:40;;;;;;;16.38;4.70;;;;;;;;;;4959186;29;20062;-52
2024/01/04 03:24:06;;;;;;;17.20;4.70;;;;;;;;;;4967183;29;20042;-57
2024/01/04 03:26:32;;;;;;;16.07;3.73;;;;;;;;;;4963882;29;20095;-59
2024/01/04 03:28:57;;;;;;;11.82;3.58;;;;;;;;;;4966629;29;20042;-57
2024/01/04 03:31:23;;;;;;;9.73;3.70;;;;;;;;;;4964200;29;20032;-55
2024/01/04 03:33:49;;;;;;;14.02;3.85;;;;;;;;;;4957194;29;20024;-57
2024/01/04 03:36:15;;;;;;;13.45;3.20;;;;;;;;;;4970819;29;20047;-56
2024/01/04 03:38:40;;;;;;;18.38;3.53;;;;;;;;;;4963006;28;20035;-56
2024/01/04 03:41:06;;;;;;;13.50;3.40;;;;;;;;;;4958227;29;20040;-55
2024/01/04 03:43:32;;;;;;;13.57;4.05;;;;;;;;;;4959425;29;20036;-57
2024/01/04 03:45:57;;;;;;;11.47;3.77;;;;;;;;;;4966135;29;20035;-56
2024/01/04 03:48:23;;;;;;;22.17;3.70;;;;;;;;;;4970034;29;20043;-55
2024/01/04 03:50:48;;;;;;;8.10;2.75;;;;;;;;;;4960609;29;20035;-57
2024/01/04 03:53:14;;;;;;;25.73;4.35;;;;;;;;;;4971576;29;20058;-56
2024/01/04 03:55:39;;;;;;;15.60;3.47;;;;;;;;;;4961925;29;20035;-56
2024/01/04 03:58:05;;;;;;;12.30;3.10;;;;;;;;;;4964120;29;20046;-57
2024/01/04 04:00:30;;;;;;;15.03;3.40;;;;;;;;;;4962337;29;20028;-56
2024/01/04 04:02:56;;;;;;;13.23;3.67;;;;;;;;;;4971127;29;20032;-57
2024/01/04 04:05:22;;;;;;;15.63;3.30;;;;;;;;;;4963250;29;20285;-55
2024/01/04 04:07:47;;;;;;;10.55;3.00;;;;;;;;;;4960059;29;20058;-57
2024/01/04 04:10:12;;;;;;;15.67;5.67;;;;;;;;;;4961827;29;20067;-55
2024/01/04 04:12:38;;;;;;;14.95;4.95;;;;;;;;;;4957391;29;20135;-54
2024/01/04 04:15:03;;;;;;;26.67;4.83;;;;;;;;;;4960446;29;20055;-55
2024/01/04 04:17:29;;;;;;;9.55;3.70;;;;;;;;;;4965588;29;20035;-55
2024/01/04 04:19:54;;;;;;;28.90;4.47;;;;;;;;;;4962116;29;20036;-51
2024/01/04 04:22:19;;;;;;;10.30;3.10;;;;;;;;;;4960508;29;20046;-57
2024/01/04 04:24:45;;;;;;;23.97;4.50;;;;;;;;;;4957847;29;20070;-56
2024/01/04 04:27:10;;;;;;;19.23;6.53;;;;;;;;;;4964204;29;20063;-54
2024/01/04 04:29:40;;;;;;;29.70;7.27;;;;;;;;;;4959645;29;20273;-57
2024/01/04 04:32:05;;;;;;;37.30;8.13;;;;;;;;;;4959396;29;20043;-57
2024/01/04 04:34:30;;;;;;;28.77;7.43;;;;;;;;;;4963492;29;20337;-53
2024/01/04 04:36:55;;;;;;;26.63;7.43;;;;;;;;;;4960901;29;20035;-56
2024/01/04 04:39:21;;;;;;;42.37;9.60;;;;;;;;;;4951715;29;20098;-57
2024/01/04 04:41:46;;;;;;;28.30;7.90;;;;;;;;;;4956266;29;20038;-54
2024/01/04 04:44:11;;;;;;;28.33;7.50;;;;;;;;;;4966960;29;20035;-57
2024/01/04 04:46:37;;;;;;;25.73;4.87;;;;;;;;;;4956279;29;20293;-53
2024/01/04 04:49:02;;;;;;;13.03;4.20;;;;;;;;;;4956902;29;20032;-56
2024/01/04 04:51:27;;;;;;;8.87;3.87;;;;;;;;;;4958518;29;20036;-56
2024/01/04 04:53:53;;;;;;;12.00;3.93;;;;;;;;;;4956393;29;20039;-56
2024/01/04 04:56:18;;;;;;;17.50;4.13;;;;;;;;;;4959546;29;20035;-55
2024/01/04 04:58:44;;;;;;;18.57;6.10;;;;;;;;;;4951569;29;20092;-53
2024/01/04 05:01:09;;;;;;;25.23;7.47;;;;;;;;;;4956859;29;20266;-55
2024/01/04 05:03:35;;;;;;;32.53;10.33;;;;;;;;;;4958419;29;20063;-53
2024/01/04 05:06:00;;;;;;;28.67;8.38;;;;;;;;;;4956398;29;20039;-55
2024/01/04 05:08:25;;;;;;;25.40;7.77;;;;;;;;;;4960833;29;20097;-52
2024/01/04 05:10:51;;;;;;;31.83;9.03;;;;;;;;;;4958248;29;20048;-56
2024/01/04 05:13:16;;;;;;;24.60;9.80;;;;;;;;;;4956591;29;20145;-55
2024/01/04 05:15:42;;;;;;;29.67;10.37;;;;;;;;;;4956269;29;20557;-56
2024/01/04 05:18:09;;;;;;;30.30;9.47;;;;;;;;;;4961671;28;20040;-51
2024/01/04 05:20:34;;;;;;;32.40;9.55;;;;;;;;;;4964496;29;20278;-52
2024/01/04 05:22:59;;;;;;;35.60;11.73;;;;;;;;;;4960205;29;20031;-56
2024/01/04 05:25:25;;;;;;;39.72;12.55;;;;;;;;;;4960408;29;20035;-57
2024/01/04 05:27:51;;;;;;;41.40;12.90;;;;;;;;;;4947033;29;20051;-55
2024/01/04 05:30:17;;;;;;;37.75;11.73;;;;;;;;;;4965818;29;20273;-56
2024/01/04 05:32:42;;;;;;;32.27;11.40;;;;;;;;;;4959913;29;20103;-55
2024/01/04 05:35:08;;;;;;;33.22;10.05;;;;;;;;;;4953920;29;20055;-54
2024/01/04 05:37:35;;;;;;;29.90;9.50;;;;;;;;;;4969266;29;20282;-56
2024/01/04 05:40:00;;;;;;;32.03;9.88;;;;;;;;;;4952775;29;20027;-56
2024/01/04 05:42:25;;;;;;;39.33;11.27;;;;;;;;;;4960186;29;20043;-56
2024/01/04 05:44:51;;;;;;;29.63;10.02;;;;;;;;;;4966656;29;20039;-56
2024/01/04 05:47:17;;;;;;;27.20;8.50;;;;;;;;;;4962629;29;20084;-55
2024/01/04 05:49:42;;;;;;;28.05;8.93;;;;;;;;;;4966787;29;20020;-56
2024/01/04 05:52:08;;;;;;;30.30;10.40;;;;;;;;;;4963124;29;20039;-53
2024/01/04 05:54:33;;;;;;;36.10;11.33;;;;;;;;;;4962268;29;20050;-57
2024/01/04 05:56:59;;;;;;;24.43;6.00;;;;;;;;;;4961794;29;20339;-55
2024/01/04 05:59:24;;;;;;;18.50;5.50;;;;;;;;;;4966160;29;20667;-52
2024/01/04 06:01:54;;;;;;;22.42;5.28;;;;;;;;;;4962111;29;20031;-51
2024/01/04 06:04:19;;;;;;;23.93;5.73;;;;;;;;;;4960993;29;20059;-56
2024/01/04 06:06:46;;;;;;;9.37;4.43;;;;;;;;;;4965229;29;20278;-55
2024/01/04 06:09:11;;;;;;;12.73;3.93;;;;;;;;;;4967275;29;20280;-57
2024/01/04 06:11:38;;;;;;;18.42;4.75;;;;;;;;;;4961276;29;20302;-57
2024/01/04 06:14:06;;;;;;;14.73;3.78;;;;;;;;;;4964656;29;20043;-58
2024/01/04 06:16:32;;;;;;;25.93;4.77;;;;;;;;;;4959180;29;20032;-57
2024/01/04 06:18:58;;;;;;;13.32;5.25;;;;;;;;;;4963015;29;20282;-57
2024/01/04 06:21:23;;;;;;;17.33;6.27;;;;;;;;;;4961183;29;20036;-56
2024/01/04 06:23:49;;;;;;;16.77;5.45;;;;;;;;;;4964908;29;20031;-57
2024/01/04 06:26:18;;;;;;;23.33;6.47;;;;;;;;;;4967421;29;20123;-57
2024/01/04 06:28:44;;;;;;;26.57;8.03;;;;;;;;;;4965609;29;20070;-54
2024/01/04 06:31:09;;;;;;;25.50;7.90;;;;;;;;;;4961611;29;20282;-51
2024/01/04 06:33:35;;;;;;;21.57;7.90;;;;;;;;;;4959065;29;20314;-55
2024/01/04 06:36:01;;;;;;;34.97;10.40;;;;;;;;;;4968506;29;20042;-52
2024/01/04 06:38:26;;;;;;;;;;;;;;;;;;4964101;29;20028;-56
2024/01/04 06:40:52;;;;;;;33.50;10.03;;;;;;;;;;4960183;29;19906;-58
2024/01/04 06:43:18;;;;;;;32.47;11.40;;;;;;;;;;4962006;29;20038;-55
2024/01/04 06:45:44;;;;;;;29.93;10.07;;;;;;;;;;4962953;29;20067;-56
2024/01/04 06:48:09;;;;;;;27.73;10.17;;;;;;;;;;4944428;29;20284;-53
2024/01/04 06:50:36;;;;;;;25.20;10.00;;;;;;;;;;4965791;29;20313;-55
2024/01/04 06:53:01;;;;;;;37.05;9.10;;;;;;;;;;4960386;29;20040;-56
2024/01/04 06:55:27;;;;;;;24.65;9.05;;;;;;;;;;4958449;29;20043;-56
2024/01/04 06:57:53;;;;;;;23.17;8.50;;;;;;;;;;4960379;29;20027;-54
2024/01/04 07:00:18;;;;;;;24.23;8.77;;;;;;;;;;4962865;29;20019;-55
2024/01/04 07:02:44;;;;;;;22.67;8.67;;;;;;;;;;4960430;29;20262;-56
2024/01/04 07:05:11;;;;;;;21.48;8.27;;;;;;;;;;4966937;29;20038;-53
2024/01/04 07:07:37;;;;;;;23.13;8.17;;;;;;;;;;4963857;29;20019;-56
2024/01/04 07:10:02;;;;;;;34.13;8.85;;;;;;;;;;4966044;29;20282;-57
2024/01/04 07:12:28;;;;;;;38.23;11.40;;;;;;;;;;4960078;29;20046;-55
2024/01/04 07:14:54;;;;;;;36.22;9.55;;;;;;;;;;4958279;29;20028;-58
2024/01/04 07:17:20;;;;;;;21.10;7.63;;;;;;;;;;4964726;29;20072;-55
2024/01/04 07:19:46;;;;;;;18.48;6.18;;;;;;;;;;4961761;29;20103;-57
2024/01/04 07:22:11;;;;;;;24.90;6.00;;;;;;;;;;4960081;29;20040;-56
2024/01/04 07:24:37;;;;;;;17.55;4.68;;;;;;;;;;4958101;29;20047;-57
2024/01/04 07:27:03;;;;;;;17.70;5.20;;;;;;;;;;4961594;29;20099;-56
2024/01/04 07:29:29;;;;;;;9.88;4.90;;;;;;;;;;4959683;29;20270;-57
2024/01/04 07:31:55;;;;;;;10.45;4.57;;;;;;;;;;4957843;29;20107;-56
2024/01/04 07:34:21;;;;;;;10.50;4.18;;;;;;;;;;4958638;29;20035;-56
2024/01/04 07:36:47;;;;;;;12.37;4.23;;;;;;;;;;4965766;29;20031;-57
2024/01/04 07:39:12;;;;;;;13.63;5.17;;;;;;;;;;4966004;29;20272;-55
2024/01/04 07:41:37;;;;;;;12.83;4.50;;;;;;;;;;4961275;29;20027;-52
2024/01/04 07:44:03;;;;;;;11.18;4.50;;;;;;;;;;4958163;29;20072;-56
2024/01/04 07:46:30;;;;;;;11.20;4.30;;;;;;;;;;4960905;29;20043;-57
2024/01/04 07:48:56;;;;;;;14.20;4.77;;;;;;;;;;4969664;29;20333;-56
2024/01/04 07:51:22;;;;;;;35.03;6.80;;;;;;;;;;4958879;29;20274;-57
2024/01/04 07:53:47;;;;;;;16.45;4.93;;;;;;;;;;4957175;29;20036;-56
2024/01/04 07:56:12;;;;;;;14.00;4.80;;;;;;;;;;4965123;29;20120;-57
2024/01/04 07:58:37;;;;;;;18.40;5.43;;;;;;;;;;4958690;29;20035;-56
2024/01/04 08:01:03;;;;;;;13.40;5.20;;;;;;;;;;4957402;29;20047;-58
2024/01/04 08:03:28;;;;;;;11.07;5.20;;;;;;;;;;4957616;29;20062;-53
2024/01/04 08:05:54;;;;;;;13.60;4.97;;;;;;;;;;4957838;29;20038;-57
2024/01/04 08:08:20;;;;;;;11.83;4.70;;;;;;;;;;4966249;29;20304;-56
2024/01/04 08:10:46;;;;;;;12.07;4.97;;;;;;;;;;4959372;29;20262;-57
2024/01/04 08:13:11;;;;;;;13.63;4.53;;;;;;;;;;4956987;29;20150;-55
2024/01/04 08:15:37;;;;;;;18.00;7.17;;;;;;;;;;4963882;29;20027;-54
2024/01/04 08:18:02;;;;;;;21.08;6.15;;;;;;;;;;4963130;29;20051;-55
2024/01/04 08:20:29;;;;;;;23.25;5.45;;;;;;;;;;4965970;29;20032;-54
2024/01/04 08:22:55;;;;;;;24.27;6.47;;;;;;;;;;4960136;29;20053;-56
2024/01/04 08:25:20;;;;;;;36.03;5.97;;;;;;;;;;4956851;29;20277;-57
2024/01/04 08:27:46;;;;;;;25.70;6.23;;;;;;;;;;4956610;29;20044;-53
2024/01/04 08:30:11;;;;;;;15.20;4.77;;;;;;;;;;4962330;29;20040;-56
2024/01/04 08:32:36;;;;;;;14.60;4.97;;;;;;;;;;4957735;29;20031;-56
2024/01/04 08:35:02;;;;;;;10.93;3.72;;;;;;;;;;4957033;29;20043;-56
2024/01/04 08:37:27;;;;;;;16.23;5.50;;;;;;;;;;4961921;29;20050;-57
2024/01/04 08:39:53;;;;;;;15.00;5.28;;;;;;;;;;4961447;29;20036;-54
2024/01/04 08:42:18;;;;;;;21.80;5.03;;;;;;;;;;4957441;29;20091;-55
2024/01/04 08:44:44;;;;;;;15.23;4.53;;;;;;;;;;4958010;29;20281;-56
2024/01/04 08:47:09;;;;;;;21.77;5.10;;;;;;;;;;4959167;29;20277;-55
2024/01/04 08:49:35;;;;;;;20.30;5.03;;;;;;;;;;4965534;29;20063;-59
2024/01/04 08:52:00;;;;;;;10.27;3.80;;;;;;;;;;4967503;29;20038;-56
2024/01/04 08:54:25;;;;;;;19.63;3.43;;;;;;;;;;4956911;29;20039;-58
2024/01/04 08:56:51;;;;;;;13.93;5.57;;;;;;;;;;4965616;29;20032;-55
2024/01/04 08:59:16;;;;;;;7.70;3.40;;;;;;;;;;4964679;29;20269;-57
2024/01/04 09:01:42;;;;;;;11.90;4.70;;;;;;;;;;4965060;29;20362;-52
2024/01/04 09:04:07;;;;;;;17.20;5.05;;;;;;;;;;4960060;29;20072;-57
2024/01/04 09:06:33;;;;;;;26.20;5.60;;;;;;;;;;4959854;29;20040;-57
2024/01/04 09:08:59;;;;;;;18.10;5.80;;;;;;;;;;4956169;29;20042;-54
2024/01/04 09:11:27;;;;;;;21.57;7.00;;;;;;;;;;4958815;29;20107;-58
2024/01/04 09:13:53;;;;;;;18.07;5.50;;;;;;;;;;4956937;29;20292;-54
2024/01/04 09:16:18;;;;;;;30.93;10.43;;;;;;;;;;4965337;29;20274;-55
2024/01/04 09:18:44;;;;;;;8.95;3.70;;;;;;;;;;4956114;29;20038;-57
2024/01/04 09:21:09;;;;;;;12.90;3.88;;;;;;;;;;4958002;29;20100;-56
2024/01/04 09:23:34;;;;;;;11.53;2.77;;;;;;;;;;4964224;29;20039;-56
2024/01/04 09:26:03;;;;;;;13.63;4.03;;;;;;;;;;4962309;29;20038;-57
2024/01/04 09:28:29;;;;;;;4.47;2.50;;;;;;;;;;4959007;29;20024;-57
2024/01/04 09:30:54;;;;;;;9.23;3.10;;;;;;;;;;4964976;29;20276;-57
2024/01/04 09:33:23;;;;;;;14.13;2.77;;;;;;;;;;4966201;29;20286;-57
2024/01/04 09:35:49;;;;;;;10.30;2.87;;;;;;;;;;4956433;29;20181;-56
2024/01/04 09:38:14;;;;;;;5.77;2.30;;;;;;;;;;4955761;29;20270;-57
2024/01/04 09:40:39;;;;;;;5.63;2.30;;;;;;;;;;4958103;29;20057;-54
2024/01/04 09:43:04;;;;;;;10.43;3.07;;;;;;;;;;4965004;29;20038;-58
2024/01/04 09:45:31;;;;;;;14.47;3.60;;;;;;;;;;4959014;29;20040;-57
2024/01/04 09:47:57;;;;;;;13.80;3.00;;;;;;;;;;4958876;29;20067;-55
2024/01/04 09:50:23;;;;;;;35.05;6.60;;;;;;;;;;4959219;29;20269;-57
2024/01/04 09:52:51;;;;;;;35.17;6.80;;;;;;;;;;4960840;29;20063;-56
2024/01/04 09:55:18;;;;;;;31.07;6.63;;;;;;;;;;4955829;29;20032;-56
2024/01/04 09:57:43;;;;;;;43.70;8.37;;;;;;;;;;4960730;29;20342;-58
2024/01/04 10:00:09;;;;;;;49.50;8.60;;;;;;;;;;4956015;29;20269;-59
2024/01/04 10:02:42;;;;;;;25.10;5.53;;;;;;;;;;4963221;29;20035;-59
2024/01/04 10:05:09;;;;;;;37.70;8.03;;;;;;;;;;4968937;28;20261;-53
2024/01/04 10:07:38;;;;;;;18.60;3.63;;;;;;;;;;4961660;29;20262;-54
2024/01/04 10:10:12;;;;;;;10.40;2.53;;;;;;;;;;4964888;29;20266;-57
2024/01/04 10:12:40;;;;;;;4.50;1.90;;;;;;;;;;4963885;29;20278;-56
2024/01/04 10:15:07;;;;;;;4.67;1.80;;;;;;;;;;4959440;29;20274;-56
2024/01/04 10:17:34;;;;;;;8.07;1.90;;;;;;;;;;4953651;29;20262;-56
2024/01/04 10:19:59;;;;;;;7.40;2.03;;;;;;;;;;4959209;29;20309;-57
2024/01/04 10:22:24;;;;;;;6.30;2.40;;;;;;;;;;4961679;29;20289;-56
2024/01/04 10:24:51;;;;;;;29.77;5.30;;;;;;;;;;4959187;29;20038;-57
2024/01/04 10:27:17;;;;;;;22.40;5.47;;;;;;;;;;4960374;29;20044;-55
2024/01/04 10:29:45;;;;;;;16.77;4.17;;;;;;;;;;4965035;29;20266;-55
2024/01/04 10:32:12;;;;;;;28.10;8.07;;;;;;;;;;4963414;29;20031;-56
2024/01/04 10:34:38;;;;;;;15.80;5.67;;;;;;;;;;4960730;29;20282;-60
2024/01/04 10:37:11;;;;;;;21.35;6.45;;;;;;;;;;4958790;29;20290;-57
2024/01/04 10:39:37;;;;;;;48.03;9.30;;;;;;;;;;4957632;29;20099;-57
2024/01/04 10:42:02;;;;;;;16.27;4.60;;;;;;;;;;4962914;29;20270;-57
2024/01/04 10:44:29;;;;;;;16.95;3.90;;;;;;;;;;4958656;29;20049;-55
2024/01/04 10:46:56;;;;;;;10.35;3.40;;;;;;;;;;4958936;29;20028;-58
2024/01/04 10:49:22;;;;;;;8.63;3.60;;;;;;;;;;4960961;29;20055;-55
2024/01/04 10:51:51;;;;;;;19.83;5.15;;;;;;;;;;4958895;29;20298;-57
2024/01/04 10:54:16;;;;;;;24.63;5.47;;;;;;;;;;4958240;29;20125;-57
2024/01/04 10:56:42;;;;;;;13.63;4.85;;;;;;;;;;4960450;29;20708;-57
2024/01/04 10:59:08;;;;;;;14.38;3.40;;;;;;;;;;4963822;28;20141;-58
2024/01/04 11:01:34;;;;;;;7.03;2.60;;;;;;;;;;4966512;29;20016;-57
2024/01/04 11:04:00;;;;;;;12.98;2.30;;;;;;;;;;4965850;29;20043;-55
2024/01/04 11:06:28;;;;;;;11.53;2.43;;;;;;;;;;4958792;29;20028;-58
2024/01/04 11:08:57;;;;;;;5.37;1.90;;;;;;;;;;4960743;29;20035;-58
2024/01/04 11:11:24;;;;;;;11.30;2.13;;;;;;;;;;4967204;29;20625;-57
2024/01/04 11:13:49;;;;;;;7.13;2.03;;;;;;;;;;4955836;29;20338;-57
2024/01/04 11:16:25;;;;;;;11.88;2.38;;;;;;;;;;4958193;29;20295;-57
2024/01/04 11:18:53;;;;;;;8.43;2.00;;;;;;;;;;4963281;29;20055;-57
2024/01/04 11:21:19;;;;;;;16.00;2.17;;;;;;;;;;4956867;29;20274;-57
2024/01/04 11:23:55;;;;;;;28.58;3.22;;;;;;;;;;4961109;29;20258;-56
2024/01/04 11:26:29;;;;;;;43.33;4.18;;;;;;;;;;4958979;29;20047;-58
2024/01/04 11:28:55;;;;;;;6.63;2.90;;;;;;;;;;4955327;29;20035;-59
2024/01/04 11:31:23;;;;;;;38.87;6.00;;;;;;;;;;4961328;29;20258;-58
2024/01/04 11:33:49;;;;;;;29.90;6.03;;;;;;;;;;4941245;29;20332;-59
2024/01/04 11:36:15;;;;;;;;;;;;;;;;;;4958176;29;20270;-56
2024/01/04 11:38:43;;;;;;;41.10;7.43;;;;;;;;;;4957913;29;19911;-56
2024/01/04 11:41:09;;;;;;;54.53;10.03;;;;;;;;;;4958026;29;20068;-58
2024/01/04 11:43:35;;;;;;;31.23;7.20;;;;;;;;;;4968664;29;20602;-58
2024/01/04 11:46:00;;;;;;;;;;;;;;;;;;4947659;29;20043;-59
2024/01/04 11:48:27;;;;;;;17.02;2.05;;;;;;;;;;4961202;29;19946;-58
2024/01/04 11:50:53;;;;;;;6.27;2.13;;;;;;;;;;4956674;29;20032;-58
2024/01/04 11:53:19;;;;;;;8.35;1.60;;;;;;;;;;4964000;29;20289;-58
2024/01/04 11:55:44;;;;;;;4.47;1.27;;;;;;;;;;4958027;29;20050;-59
2024/01/04 11:58:11;;;;;;;2.97;1.53;;;;;;;;;;4957717;29;20040;-59
2024/01/04 12:00:49;;;;;;;5.93;1.77;;;;;;;;;;4961366;29;20031;-57
2024/01/04 12:03:15;;;;;;;18.53;4.57;;;;;;;;;;4945785;29;20274;-57
2024/01/04 12:05:41;;;;;;;6.68;2.53;;;;;;;;;;4957081;29;20278;-57
2024/01/04 12:08:07;;;;;;;13.63;2.70;;;;;;;;;;4959159;29;20078;-57
2024/01/04 12:10:33;;;;;;;15.40;4.45;;;;;;;;;;4958486;29;20039;-58
2024/01/04 12:12:58;;;;;;;26.95;5.50;;;;;;;;;;4958729;29;20046;-58
2024/01/04 12:15:24;;;;;;;18.37;3.60;;;;;;;;;;4963307;29;20032;-57
2024/01/04 12:17:49;;;;;;;10.30;3.90;;;;;;;;;;4957210;29;20060;-58
2024/01/04 12:20:15;;;;;;;12.37;3.00;;;;;;;;;;4957328;29;20050;-56
2024/01/04 12:22:40;;;;;;;8.07;2.90;;;;;;;;;;4966300;29;20034;-58
2024/01/04 12:25:08;;;;;;;8.70;2.50;;;;;;;;;;4961761;29;20035;-57
2024/01/04 12:27:36;;;;;;;12.25;3.17;;;;;;;;;;4956545;29;20312;-60
2024/01/04 12:30:02;;;;;;;7.60;2.37;;;;;;;;;;4961371;29;20047;-60
2024/01/04 12:32:28;;;;;;;5.00;2.42;;;;;;;;;;4962163;29;20283;-58
2024/01/04 12:34:53;;;;;;;10.68;3.22;;;;;;;;;;4961845;29;20048;-60
2024/01/04 12:37:19;;;;;;;12.73;4.40;;;;;;;;;;4964281;29;20059;-58
2024/01/04 12:39:44;;;;;;;25.03;9.03;;;;;;;;;;4960025;29;20063;-60
2024/01/04 12:42:12;;;;;;;14.57;4.03;;;;;;;;;;4957111;29;20039;-58
2024/01/04 12:44:37;;;;;;;10.53;3.83;;;;;;;;;;4961323;29;20075;-59
2024/01/04 12:47:09;;;;;;;21.75;7.55;;;;;;;;;;4960509;29;20257;-58
2024/01/04 12:49:35;;;;;;;11.10;3.70;;;;;;;;;;4961325;29;20043;-58
2024/01/04 12:52:10;;;;;;;10.50;2.53;;;;;;;;;;4959201;29;20273;-56
2024/01/04 12:54:35;;;;;;;8.87;2.33;;;;;;;;;;4958426;29;20058;-57
2024/01/04 12:57:00;;;;;;;9.63;2.10;;;;;;;;;;4963486;29;20269;-58
2024/01/04 12:59:25;;;;;;;4.07;1.67;;;;;;;;;;4957292;29;20062;-55
2024/01/04 13:01:51;;;;;;;11.65;3.65;;;;;;;;;;4955425;29;20059;-55
2024/01/04 13:04:16;;;;;;;14.70;1.87;;;;;;;;;;4963813;29;20050;-57
2024/01/04 13:06:42;;;;;;;14.20;2.33;;;;;;;;;;4953625;29;20031;-58
2024/01/04 13:09:07;;;;;;;6.32;2.25;;;;;;;;;;4960373;29;20032;-59
2024/01/04 13:11:33;;;;;;;5.33;1.80;;;;;;;;;;4955551;29;20036;-58
2024/01/04 13:14:00;;;;;;;14.63;3.72;;;;;;;;;;4956257;29;20159;-58
2024/01/04 13:16:25;;;;;;;11.73;2.20;;;;;;;;;;4959848;29;20032;-56
2024/01/04 13:18:51;;;;;;;8.83;1.73;;;;;;;;;;4962346;29;20277;-55
2024/01/04 13:21:17;;;;;;;;;;;;;;;;;;4961507;29;20046;-57
2024/01/04 13:23:43;;;;;;;30.57;5.70;;;;;;;;;;4961891;29;19911;-56
2024/01/04 13:26:09;;;;;;;20.67;6.10;;;;;;;;;;4966304;29;20031;-56
2024/01/04 13:28:34;;;;;;;28.40;7.23;;;;;;;;;;4958396;29;20137;-57
2024/01/04 13:31:00;;;;;;;20.60;4.40;;;;;;;;;;4956447;29;20286;-56
2024/01/04 13:33:26;;;;;;;23.85;6.80;;;;;;;;;;4957395;29;20041;-57
2024/01/04 13:35:52;;;;;;;17.13;3.70;;;;;;;;;;4957329;29;20059;-56
2024/01/04 13:38:17;;;;;;;8.68;1.88;;;;;;;;;;4956356;29;20039;-56
2024/01/04 13:40:43;;;;;;;11.80;3.75;;;;;;;;;;4959338;29;20031;-58
2024/01/04 13:43:08;;;;;;;23.70;5.50;;;;;;;;;;4964526;29;20036;-54
2024/01/04 13:45:33;;;;;;;31.80;6.13;;;;;;;;;;4964651;29;20055;-56
2024/01/04 13:48:00;;;;;;;25.80;7.87;;;;;;;;;;4943150;29;20032;-59
2024/01/04 13:50:25;;;;;;;30.03;6.37;;;;;;;;;;4964018;29;20063;-57
2024/01/04 13:52:51;;;;;;;21.83;5.93;;;;;;;;;;4946999;29;20278;-59
2024/01/04 13:55:16;;;;;;;18.08;4.72;;;;;;;;;;4944799;29;20515;-58
2024/01/04 13:57:42;;;;;;;23.65;4.32;;;;;;;;;;4960341;29;20034;-54
2024/01/04 14:00:08;;;;;;;24.17;3.67;;;;;;;;;;4959501;29;20038;-56
2024/01/04 14:02:37;;;;;;;12.47;2.57;;;;;;;;;;4961577;29;20821;-59
2024/01/04 14:05:03;;;;;;;6.67;2.57;;;;;;;;;;4946022;29;20258;-58
2024/01/04 14:07:29;;;;;;;;;;;;;;;;;;4960042;29;20043;-57
2024/01/04 14:09:55;;;;;;;14.77;2.27;;;;;;;;;;4960483;29;19911;-58
2024/01/04 14:12:20;;;;;;;16.80;3.93;;;;;;;;;;4961576;29;20079;-59
2024/01/04 14:14:46;;;;;;;19.77;5.15;;;;;;;;;;4960707;29;20035;-56
2024/01/04 14:17:12;;;;;;;13.80;4.23;;;;;;;;;;4963699;29;20036;-56
2024/01/04 14:19:38;;;;;;;22.97;4.20;;;;;;;;;;4968508;29;20041;-58
2024/01/04 14:22:03;;;;;;;19.20;5.60;;;;;;;;;;4966863;29;20273;-58
2024/01/04 14:24:29;;;;;;;14.68;4.68;;;;;;;;;;4969958;29;20046;-58